sensor_id;sensor_type;location;lat;lon;timestamp;P1;durP1;ratioP1;P2;durP2;ratioP2
63050;SDS011;49136;47.416;19.402;2022-07-22T00:00:29;8.18;;;3.30;;
63050;SDS011;49136;47.416;19.402;2022-07-22T00:02:54;4.68;;;3.15;;
63050;SDS011;49136;47.416;19.402;2022-07-22T00:05:19;7.25;;;3.38;;
63050;SDS011;49136;47.416;19.402;2022-07-22T00:07:45;9.00;;;3.10;;
63050;SDS011;49136;47.416;19.402;2022-07-22T00:10:10;6.63;;;3.40;;
63050;SDS011;49136;47.416;19.402;2022-07-22T00:12:36;9.52;;;3.33;;
63050;SDS011;49136;47.416;19.402;2022-07-22T00:15:03;5.18;;;2.92;;
63050;SDS011;49136;47.416;19.402;2022-07-22T00:17:29;8.93;;;3.05;;
63050;SDS011;49136;47.416;19.402;2022-07-22T00:19:55;7.47;;;3.25;;
63050;SDS011;49136;47.416;19.402;2022-07-22T00:22:21;5.00;;;2.53;;
63050;SDS011;49136;47.416;19.402;2022-07-22T00:24:46;3.70;;;2.53;;
63050;SDS011;49136;47.416;19.402;2022-07-22T00:27:11;5.03;;;2.60;;
63050;SDS011;49136;47.416;19.402;2022-07-22T00:29:37;5.72;;;2.88;;
63050;SDS011;49136;47.416;19.402;2022-07-22T00:32:02;9.13;;;2.78;;
63050;SDS011;49136;47.416;19.402;2022-07-22T00:34:28;8.07;;;2.60;;
63050;SDS011;49136;47.416;19.402;2022-07-22T00:36:53;10.15;;;2.60;;
63050;SDS011;49136;47.416;19.402;2022-07-22T00:39:19;5.13;;;2.08;;
63050;SDS011;49136;47.416;19.402;2022-07-22T00:41:46;3.58;;;2.30;;
63050;SDS011;49136;47.416;19.402;2022-07-22T00:44:12;3.85;;;2.20;;
63050;SDS011;49136;47.416;19.402;2022-07-22T00:46:38;3.75;;;2.20;;
63050;SDS011;49136;47.416;19.402;2022-07-22T00:49:05;6.80;;;2.50;;
63050;SDS011;49136;47.416;19.402;2022-07-22T00:51:31;5.03;;;2.88;;
63050;SDS011;49136;47.416;19.402;2022-07-22T00:53:57;5.70;;;2.33;;
63050;SDS011;49136;47.416;19.402;2022-07-22T00:56:24;7.22;;;2.47;;
63050;SDS011;49136;47.416;19.402;2022-07-22T00:58:50;8.68;;;3.00;;
63050;SDS011;49136;47.416;19.402;2022-07-22T01:01:18;4.07;;;2.17;;
63050;SDS011;49136;47.416;19.402;2022-07-22T01:03:44;8.57;;;3.20;;
63050;SDS011;49136;47.416;19.402;2022-07-22T01:06:09;11.68;;;2.97;;
63050;SDS011;49136;47.416;19.402;2022-07-22T01:08:35;7.80;;;2.42;;
63050;SDS011;49136;47.416;19.402;2022-07-22T01:11:06;5.30;;;2.58;;
63050;SDS011;49136;47.416;19.402;2022-07-22T01:13:43;15.00;;;3.67;;
63050;SDS011;49136;47.416;19.402;2022-07-22T01:16:10;11.13;;;2.90;;
63050;SDS011;49136;47.416;19.402;2022-07-22T01:18:37;6.80;;;2.80;;
63050;SDS011;49136;47.416;19.402;2022-07-22T01:21:03;11.93;;;3.10;;
63050;SDS011;49136;47.416;19.402;2022-07-22T01:23:30;25.27;;;5.43;;
63050;SDS011;49136;47.416;19.402;2022-07-22T01:25:55;6.93;;;2.83;;
63050;SDS011;49136;47.416;19.402;2022-07-22T01:28:21;8.30;;;2.80;;
63050;SDS011;49136;47.416;19.402;2022-07-22T01:30:47;9.90;;;3.25;;
63050;SDS011;49136;47.416;19.402;2022-07-22T01:33:14;8.63;;;2.90;;
63050;SDS011;49136;47.416;19.402;2022-07-22T01:35:43;7.38;;;2.53;;
63050;SDS011;49136;47.416;19.402;2022-07-22T01:38:09;10.40;;;2.55;;
63050;SDS011;49136;47.416;19.402;2022-07-22T01:40:35;6.28;;;2.97;;
63050;SDS011;49136;47.416;19.402;2022-07-22T01:43:00;7.93;;;3.03;;
63050;SDS011;49136;47.416;19.402;2022-07-22T01:45:26;17.58;;;3.80;;
63050;SDS011;49136;47.416;19.402;2022-07-22T01:47:51;16.85;;;3.13;;
63050;SDS011;49136;47.416;19.402;2022-07-22T01:50:16;27.33;;;4.38;;
63050;SDS011;49136;47.416;19.402;2022-07-22T01:52:42;20.15;;;2.90;;
63050;SDS011;49136;47.416;19.402;2022-07-22T01:55:08;4.95;;;2.67;;
63050;SDS011;49136;47.416;19.402;2022-07-22T01:57:35;4.95;;;2.80;;
63050;SDS011;49136;47.416;19.402;2022-07-22T02:00:00;4.32;;;2.40;;
63050;SDS011;49136;47.416;19.402;2022-07-22T02:02:26;19.85;;;2.92;;
63050;SDS011;49136;47.416;19.402;2022-07-22T02:04:52;3.65;;;2.38;;
63050;SDS011;49136;47.416;19.402;2022-07-22T02:07:17;6.60;;;2.60;;
63050;SDS011;49136;47.416;19.402;2022-07-22T02:09:42;4.30;;;2.70;;
63050;SDS011;49136;47.416;19.402;2022-07-22T02:12:08;5.93;;;2.58;;
63050;SDS011;49136;47.416;19.402;2022-07-22T02:14:33;9.25;;;2.60;;
63050;SDS011;49136;47.416;19.402;2022-07-22T02:16:59;6.68;;;2.67;;
63050;SDS011;49136;47.416;19.402;2022-07-22T02:19:24;4.97;;;2.35;;
63050;SDS011;49136;47.416;19.402;2022-07-22T02:21:50;4.97;;;2.80;;
63050;SDS011;49136;47.416;19.402;2022-07-22T02:24:15;5.85;;;3.05;;
63050;SDS011;49136;47.416;19.402;2022-07-22T02:26:41;10.02;;;2.28;;
63050;SDS011;49136;47.416;19.402;2022-07-22T02:29:06;12.57;;;3.03;;
63050;SDS011;49136;47.416;19.402;2022-07-22T02:31:31;8.32;;;3.00;;
63050;SDS011;49136;47.416;19.402;2022-07-22T02:33:57;11.50;;;2.80;;
63050;SDS011;49136;47.416;19.402;2022-07-22T02:36:22;12.38;;;3.08;;
63050;SDS011;49136;47.416;19.402;2022-07-22T02:38:48;12.25;;;2.95;;
63050;SDS011;49136;47.416;19.402;2022-07-22T02:41:13;5.75;;;2.28;;
63050;SDS011;49136;47.416;19.402;2022-07-22T02:43:39;5.10;;;2.63;;
63050;SDS011;49136;47.416;19.402;2022-07-22T02:46:04;6.45;;;3.13;;
63050;SDS011;49136;47.416;19.402;2022-07-22T02:48:30;3.20;;;2.33;;
63050;SDS011;49136;47.416;19.402;2022-07-22T02:50:55;4.57;;;2.40;;
63050;SDS011;49136;47.416;19.402;2022-07-22T02:53:21;5.13;;;2.90;;
63050;SDS011;49136;47.416;19.402;2022-07-22T02:55:46;5.00;;;2.50;;
63050;SDS011;49136;47.416;19.402;2022-07-22T02:58:12;7.03;;;2.38;;
63050;SDS011;49136;47.416;19.402;2022-07-22T03:00:37;5.93;;;2.75;;
63050;SDS011;49136;47.416;19.402;2022-07-22T03:03:03;4.60;;;2.50;;
63050;SDS011;49136;47.416;19.402;2022-07-22T03:05:29;5.22;;;2.60;;
63050;SDS011;49136;47.416;19.402;2022-07-22T03:07:54;5.85;;;2.25;;
63050;SDS011;49136;47.416;19.402;2022-07-22T03:10:20;4.03;;;2.50;;
63050;SDS011;49136;47.416;19.402;2022-07-22T03:12:45;4.95;;;2.60;;
63050;SDS011;49136;47.416;19.402;2022-07-22T03:15:11;9.95;;;2.35;;
63050;SDS011;49136;47.416;19.402;2022-07-22T03:17:36;7.28;;;2.28;;
63050;SDS011;49136;47.416;19.402;2022-07-22T03:20:03;7.18;;;2.25;;
63050;SDS011;49136;47.416;19.402;2022-07-22T03:22:29;10.80;;;2.05;;
63050;SDS011;49136;47.416;19.402;2022-07-22T03:24:55;5.30;;;2.10;;
63050;SDS011;49136;47.416;19.402;2022-07-22T03:27:20;6.75;;;2.90;;
63050;SDS011;49136;47.416;19.402;2022-07-22T03:29:46;6.35;;;2.38;;
63050;SDS011;49136;47.416;19.402;2022-07-22T03:32:11;4.32;;;2.45;;
63050;SDS011;49136;47.416;19.402;2022-07-22T03:34:36;6.10;;;2.72;;
63050;SDS011;49136;47.416;19.402;2022-07-22T03:37:02;4.65;;;2.40;;
63050;SDS011;49136;47.416;19.402;2022-07-22T03:39:27;6.97;;;2.30;;
63050;SDS011;49136;47.416;19.402;2022-07-22T03:41:53;10.15;;;2.60;;
63050;SDS011;49136;47.416;19.402;2022-07-22T03:44:18;9.75;;;2.55;;
63050;SDS011;49136;47.416;19.402;2022-07-22T03:46:44;16.65;;;2.80;;
63050;SDS011;49136;47.416;19.402;2022-07-22T03:49:09;8.02;;;2.65;;
63050;SDS011;49136;47.416;19.402;2022-07-22T03:51:34;8.18;;;2.10;;
63050;SDS011;49136;47.416;19.402;2022-07-22T03:54:00;3.55;;;2.10;;
63050;SDS011;49136;47.416;19.402;2022-07-22T03:56:26;4.03;;;2.05;;
63050;SDS011;49136;47.416;19.402;2022-07-22T03:58:51;6.00;;;2.30;;
63050;SDS011;49136;47.416;19.402;2022-07-22T04:01:17;4.05;;;2.28;;
63050;SDS011;49136;47.416;19.402;2022-07-22T04:03:42;12.07;;;2.30;;
63050;SDS011;49136;47.416;19.402;2022-07-22T04:06:07;8.45;;;2.58;;
63050;SDS011;49136;47.416;19.402;2022-07-22T04:08:33;7.40;;;3.20;;
63050;SDS011;49136;47.416;19.402;2022-07-22T04:10:58;4.18;;;2.50;;
63050;SDS011;49136;47.416;19.402;2022-07-22T04:13:24;4.80;;;2.05;;
63050;SDS011;49136;47.416;19.402;2022-07-22T04:15:49;6.75;;;2.58;;
63050;SDS011;49136;47.416;19.402;2022-07-22T04:18:15;6.63;;;2.90;;
63050;SDS011;49136;47.416;19.402;2022-07-22T04:20:42;5.07;;;2.40;;
63050;SDS011;49136;47.416;19.402;2022-07-22T04:23:07;14.73;;;2.05;;
63050;SDS011;49136;47.416;19.402;2022-07-22T04:25:33;6.70;;;2.42;;
63050;SDS011;49136;47.416;19.402;2022-07-22T04:27:58;20.65;;;2.60;;
63050;SDS011;49136;47.416;19.402;2022-07-22T04:30:25;11.35;;;2.38;;
63050;SDS011;49136;47.416;19.402;2022-07-22T04:32:50;5.15;;;2.83;;
63050;SDS011;49136;47.416;19.402;2022-07-22T04:35:16;3.70;;;2.30;;
63050;SDS011;49136;47.416;19.402;2022-07-22T04:37:41;3.35;;;2.40;;
63050;SDS011;49136;47.416;19.402;2022-07-22T04:40:07;13.52;;;2.50;;
63050;SDS011;49136;47.416;19.402;2022-07-22T04:42:33;8.68;;;2.33;;
63050;SDS011;49136;47.416;19.402;2022-07-22T04:44:58;5.60;;;2.63;;
63050;SDS011;49136;47.416;19.402;2022-07-22T04:47:24;8.35;;;2.30;;
63050;SDS011;49136;47.416;19.402;2022-07-22T04:49:49;12.57;;;2.85;;
63050;SDS011;49136;47.416;19.402;2022-07-22T04:52:15;5.30;;;2.50;;
63050;SDS011;49136;47.416;19.402;2022-07-22T04:54:40;12.43;;;2.95;;
63050;SDS011;49136;47.416;19.402;2022-07-22T04:57:06;3.85;;;2.60;;
63050;SDS011;49136;47.416;19.402;2022-07-22T04:59:31;3.63;;;2.10;;
63050;SDS011;49136;47.416;19.402;2022-07-22T05:01:57;12.00;;;2.25;;
63050;SDS011;49136;47.416;19.402;2022-07-22T05:04:22;16.33;;;2.38;;
63050;SDS011;49136;47.416;19.402;2022-07-22T05:06:47;3.50;;;1.95;;
63050;SDS011;49136;47.416;19.402;2022-07-22T05:09:13;8.75;;;2.47;;
63050;SDS011;49136;47.416;19.402;2022-07-22T05:11:38;37.72;;;3.53;;
63050;SDS011;49136;47.416;19.402;2022-07-22T05:14:04;12.52;;;2.38;;
63050;SDS011;49136;47.416;19.402;2022-07-22T05:16:29;6.00;;;2.28;;
63050;SDS011;49136;47.416;19.402;2022-07-22T05:18:55;17.10;;;3.20;;
63050;SDS011;49136;47.416;19.402;2022-07-22T05:21:20;8.98;;;2.58;;
63050;SDS011;49136;47.416;19.402;2022-07-22T05:23:46;10.80;;;2.60;;
63050;SDS011;49136;47.416;19.402;2022-07-22T05:26:11;9.13;;;3.13;;
63050;SDS011;49136;47.416;19.402;2022-07-22T05:28:36;16.90;;;6.60;;
63050;SDS011;49136;47.416;19.402;2022-07-22T05:31:02;23.48;;;6.82;;
63050;SDS011;49136;47.416;19.402;2022-07-22T05:33:27;8.40;;;3.53;;
63050;SDS011;49136;47.416;19.402;2022-07-22T05:35:53;17.00;;;3.65;;
63050;SDS011;49136;47.416;19.402;2022-07-22T05:38:18;9.95;;;2.42;;
63050;SDS011;49136;47.416;19.402;2022-07-22T05:40:43;9.95;;;2.80;;
63050;SDS011;49136;47.416;19.402;2022-07-22T05:43:09;5.05;;;2.13;;
63050;SDS011;49136;47.416;19.402;2022-07-22T05:45:35;4.50;;;2.05;;
63050;SDS011;49136;47.416;19.402;2022-07-22T05:48:00;4.97;;;2.05;;
63050;SDS011;49136;47.416;19.402;2022-07-22T05:50:26;12.63;;;2.40;;
63050;SDS011;49136;47.416;19.402;2022-07-22T05:52:52;7.20;;;2.08;;
63050;SDS011;49136;47.416;19.402;2022-07-22T05:55:17;2.50;;;1.77;;
63050;SDS011;49136;47.416;19.402;2022-07-22T05:57:43;5.47;;;2.25;;
63050;SDS011;49136;47.416;19.402;2022-07-22T06:00:08;7.18;;;2.38;;
63050;SDS011;49136;47.416;19.402;2022-07-22T06:02:34;6.53;;;1.83;;
63050;SDS011;49136;47.416;19.402;2022-07-22T06:05:00;7.70;;;1.60;;
63050;SDS011;49136;47.416;19.402;2022-07-22T06:07:26;4.13;;;1.50;;
63050;SDS011;49136;47.416;19.402;2022-07-22T06:09:52;3.08;;;1.73;;
63050;SDS011;49136;47.416;19.402;2022-07-22T06:12:17;8.05;;;2.03;;
63050;SDS011;49136;47.416;19.402;2022-07-22T06:14:43;8.60;;;1.88;;
63050;SDS011;49136;47.416;19.402;2022-07-22T06:17:09;2.20;;;1.50;;
63050;SDS011;49136;47.416;19.402;2022-07-22T06:19:34;3.55;;;1.85;;
63050;SDS011;49136;47.416;19.402;2022-07-22T06:22:00;6.40;;;2.20;;
63050;SDS011;49136;47.416;19.402;2022-07-22T06:24:25;4.15;;;1.65;;
63050;SDS011;49136;47.416;19.402;2022-07-22T06:26:51;3.90;;;2.05;;
63050;SDS011;49136;47.416;19.402;2022-07-22T06:29:16;2.55;;;1.60;;
63050;SDS011;49136;47.416;19.402;2022-07-22T06:31:42;5.00;;;1.73;;
63050;SDS011;49136;47.416;19.402;2022-07-22T06:34:07;2.35;;;1.73;;
63050;SDS011;49136;47.416;19.402;2022-07-22T06:36:33;3.90;;;1.70;;
63050;SDS011;49136;47.416;19.402;2022-07-22T06:38:58;2.13;;;1.60;;
63050;SDS011;49136;47.416;19.402;2022-07-22T06:41:24;4.93;;;1.65;;
63050;SDS011;49136;47.416;19.402;2022-07-22T06:43:50;8.07;;;2.15;;
63050;SDS011;49136;47.416;19.402;2022-07-22T06:46:15;3.58;;;1.65;;
63050;SDS011;49136;47.416;19.402;2022-07-22T06:48:41;3.70;;;1.90;;
63050;SDS011;49136;47.416;19.402;2022-07-22T06:51:06;3.65;;;1.70;;
63050;SDS011;49136;47.416;19.402;2022-07-22T06:53:32;3.78;;;1.75;;
63050;SDS011;49136;47.416;19.402;2022-07-22T06:55:58;2.42;;;1.40;;
63050;SDS011;49136;47.416;19.402;2022-07-22T06:58:26;3.13;;;1.60;;
63050;SDS011;49136;47.416;19.402;2022-07-22T07:00:52;4.20;;;1.45;;
63050;SDS011;49136;47.416;19.402;2022-07-22T07:03:17;5.75;;;2.33;;
63050;SDS011;49136;47.416;19.402;2022-07-22T07:05:43;3.03;;;1.80;;
63050;SDS011;49136;47.416;19.402;2022-07-22T07:08:09;6.15;;;2.05;;
63050;SDS011;49136;47.416;19.402;2022-07-22T07:10:35;6.80;;;2.00;;
63050;SDS011;49136;47.416;19.402;2022-07-22T07:13:00;3.65;;;2.30;;
63050;SDS011;49136;47.416;19.402;2022-07-22T07:15:26;6.13;;;1.90;;
63050;SDS011;49136;47.416;19.402;2022-07-22T07:17:52;4.75;;;1.92;;
63050;SDS011;49136;47.416;19.402;2022-07-22T07:20:18;3.25;;;2.00;;
63050;SDS011;49136;47.416;19.402;2022-07-22T07:22:44;8.05;;;2.20;;
63050;SDS011;49136;47.416;19.402;2022-07-22T07:25:10;4.55;;;1.80;;
63050;SDS011;49136;47.416;19.402;2022-07-22T07:27:37;3.65;;;1.90;;
63050;SDS011;49136;47.416;19.402;2022-07-22T07:30:06;3.22;;;1.65;;
63050;SDS011;49136;47.416;19.402;2022-07-22T07:32:34;3.45;;;1.63;;
63050;SDS011;49136;47.416;19.402;2022-07-22T07:34:59;6.47;;;2.00;;
63050;SDS011;49136;47.416;19.402;2022-07-22T07:37:26;3.58;;;1.98;;
63050;SDS011;49136;47.416;19.402;2022-07-22T07:39:51;8.35;;;1.95;;
63050;SDS011;49136;47.416;19.402;2022-07-22T07:42:17;6.57;;;1.85;;
63050;SDS011;49136;47.416;19.402;2022-07-22T07:44:42;7.55;;;1.90;;
63050;SDS011;49136;47.416;19.402;2022-07-22T07:47:07;5.22;;;3.13;;
63050;SDS011;49136;47.416;19.402;2022-07-22T07:49:33;11.90;;;2.15;;
63050;SDS011;49136;47.416;19.402;2022-07-22T07:51:58;1.50;;;1.23;;
63050;SDS011;49136;47.416;19.402;2022-07-22T07:54:24;17.38;;;1.63;;
63050;SDS011;49136;47.416;19.402;2022-07-22T07:56:49;5.53;;;1.85;;
63050;SDS011;49136;47.416;19.402;2022-07-22T07:59:15;8.27;;;1.90;;
63050;SDS011;49136;47.416;19.402;2022-07-22T08:01:42;2.72;;;1.70;;
63050;SDS011;49136;47.416;19.402;2022-07-22T08:04:07;8.23;;;2.58;;
63050;SDS011;49136;47.416;19.402;2022-07-22T08:06:33;5.88;;;2.28;;
63050;SDS011;49136;47.416;19.402;2022-07-22T08:08:58;6.05;;;2.05;;
63050;SDS011;49136;47.416;19.402;2022-07-22T08:11:23;4.55;;;1.70;;
63050;SDS011;49136;47.416;19.402;2022-07-22T08:13:49;5.85;;;2.28;;
63050;SDS011;49136;47.416;19.402;2022-07-22T08:16:15;3.03;;;1.90;;
63050;SDS011;49136;47.416;19.402;2022-07-22T08:18:41;5.95;;;1.88;;
63050;SDS011;49136;47.416;19.402;2022-07-22T08:21:06;7.13;;;1.80;;
63050;SDS011;49136;47.416;19.402;2022-07-22T08:23:32;8.15;;;1.98;;
63050;SDS011;49136;47.416;19.402;2022-07-22T08:25:58;9.55;;;1.70;;
63050;SDS011;49136;47.416;19.402;2022-07-22T08:28:24;8.48;;;1.98;;
63050;SDS011;49136;47.416;19.402;2022-07-22T08:30:49;5.10;;;1.95;;
63050;SDS011;49136;47.416;19.402;2022-07-22T08:33:14;6.63;;;1.90;;
63050;SDS011;49136;47.416;19.402;2022-07-22T08:35:40;4.32;;;1.83;;
63050;SDS011;49136;47.416;19.402;2022-07-22T08:38:05;4.78;;;2.03;;
63050;SDS011;49136;47.416;19.402;2022-07-22T08:40:31;6.18;;;1.75;;
63050;SDS011;49136;47.416;19.402;2022-07-22T08:42:56;7.55;;;2.00;;
63050;SDS011;49136;47.416;19.402;2022-07-22T08:45:22;7.10;;;2.13;;
63050;SDS011;49136;47.416;19.402;2022-07-22T08:47:50;5.32;;;1.73;;
63050;SDS011;49136;47.416;19.402;2022-07-22T08:50:16;4.57;;;1.92;;
63050;SDS011;49136;47.416;19.402;2022-07-22T08:52:42;3.65;;;1.90;;
63050;SDS011;49136;47.416;19.402;2022-07-22T08:55:08;5.55;;;2.10;;
63050;SDS011;49136;47.416;19.402;2022-07-22T08:57:34;3.95;;;1.83;;
63050;SDS011;49136;47.416;19.402;2022-07-22T09:00:02;7.72;;;1.83;;
63050;SDS011;49136;47.416;19.402;2022-07-22T09:02:38;7.68;;;3.05;;
63050;SDS011;49136;47.416;19.402;2022-07-22T09:05:06;4.45;;;1.85;;
63050;SDS011;49136;47.416;19.402;2022-07-22T09:07:40;6.53;;;1.60;;
63050;SDS011;49136;47.416;19.402;2022-07-22T09:10:11;3.58;;;2.00;;
63050;SDS011;49136;47.416;19.402;2022-07-22T09:13:00;7.45;;;2.10;;
63050;SDS011;49136;47.416;19.402;2022-07-22T09:15:30;6.63;;;1.65;;
63050;SDS011;49136;47.416;19.402;2022-07-22T09:17:57;3.05;;;1.65;;
63050;SDS011;49136;47.416;19.402;2022-07-22T09:20:23;3.75;;;1.92;;
63050;SDS011;49136;47.416;19.402;2022-07-22T09:22:49;2.55;;;1.40;;
63050;SDS011;49136;47.416;19.402;2022-07-22T09:27:46;10.05;;;2.22;;
63050;SDS011;49136;47.416;19.402;2022-07-22T09:30:14;3.85;;;1.83;;
63050;SDS011;49136;47.416;19.402;2022-07-22T09:32:44;6.47;;;2.30;;
63050;SDS011;49136;47.416;19.402;2022-07-22T09:35:10;6.32;;;2.20;;
63050;SDS011;49136;47.416;19.402;2022-07-22T09:37:42;4.65;;;2.25;;
63050;SDS011;49136;47.416;19.402;2022-07-22T09:42:50;5.93;;;2.30;;
63050;SDS011;49136;47.416;19.402;2022-07-22T09:45:18;2.50;;;1.73;;
63050;SDS011;49136;47.416;19.402;2022-07-22T09:47:44;10.23;;;2.30;;
63050;SDS011;49136;47.416;19.402;2022-07-22T09:50:14;4.80;;;2.20;;
63050;SDS011;49136;47.416;19.402;2022-07-22T09:52:47;11.27;;;2.88;;
63050;SDS011;49136;47.416;19.402;2022-07-22T09:55:14;4.80;;;2.08;;
63050;SDS011;49136;47.416;19.402;2022-07-22T09:57:40;4.35;;;2.30;;
63050;SDS011;49136;47.416;19.402;2022-07-22T10:00:06;4.05;;;2.10;;
63050;SDS011;49136;47.416;19.402;2022-07-22T10:02:40;2.25;;;1.95;;
63050;SDS011;49136;47.416;19.402;2022-07-22T10:05:11;2.72;;;2.15;;
63050;SDS011;49136;47.416;19.402;2022-07-22T10:07:37;4.47;;;2.05;;
63050;SDS011;49136;47.416;19.402;2022-07-22T10:10:06;2.72;;;2.00;;
63050;SDS011;49136;47.416;19.402;2022-07-22T10:12:32;9.75;;;2.38;;
63050;SDS011;49136;47.416;19.402;2022-07-22T10:14:59;5.05;;;2.13;;
63050;SDS011;49136;47.416;19.402;2022-07-22T10:17:25;4.25;;;2.13;;
63050;SDS011;49136;47.416;19.402;2022-07-22T10:19:50;4.70;;;2.53;;
63050;SDS011;49136;47.416;19.402;2022-07-22T10:22:44;4.95;;;2.72;;
63050;SDS011;49136;47.416;19.402;2022-07-22T10:25:05;4.35;;;2.67;;
63050;SDS011;49136;47.416;19.402;2022-07-22T10:30:20;7.05;;;2.42;;
63050;SDS011;49136;47.416;19.402;2022-07-22T10:35:35;6.90;;;3.10;;
63050;SDS011;49136;47.416;19.402;2022-07-22T10:38:03;2.80;;;2.35;;
63050;SDS011;49136;47.416;19.402;2022-07-22T10:40:31;5.05;;;3.10;;
63050;SDS011;49136;47.416;19.402;2022-07-22T10:45:50;7.95;;;2.90;;
63050;SDS011;49136;47.416;19.402;2022-07-22T10:48:24;3.83;;;2.88;;
63050;SDS011;49136;47.416;19.402;2022-07-22T10:51:17;2.97;;;2.50;;
63050;SDS011;49136;47.416;19.402;2022-07-22T10:56:32;13.35;;;3.20;;
63050;SDS011;49136;47.416;19.402;2022-07-22T11:01:42;11.75;;;3.05;;
63050;SDS011;49136;47.416;19.402;2022-07-22T11:06:38;6.18;;;3.42;;
63050;SDS011;49136;47.416;19.402;2022-07-22T11:09:06;7.55;;;3.10;;
63050;SDS011;49136;47.416;19.402;2022-07-22T11:11:41;4.07;;;2.65;;
63050;SDS011;49136;47.416;19.402;2022-07-22T11:16:38;7.05;;;2.97;;
63050;SDS011;49136;47.416;19.402;2022-07-22T11:19:04;4.57;;;2.90;;
63050;SDS011;49136;47.416;19.402;2022-07-22T11:21:33;8.48;;;3.72;;
63050;SDS011;49136;47.416;19.402;2022-07-22T11:24:00;8.82;;;3.20;;
63050;SDS011;49136;47.416;19.402;2022-07-22T11:26:46;5.55;;;2.70;;
63050;SDS011;49136;47.416;19.402;2022-07-22T11:31:59;6.88;;;3.28;;
63050;SDS011;49136;47.416;19.402;2022-07-22T11:34:25;5.60;;;3.08;;
63050;SDS011;49136;47.416;19.402;2022-07-22T11:36:52;6.63;;;3.10;;
63050;SDS011;49136;47.416;19.402;2022-07-22T11:39:27;6.97;;;2.90;;
63050;SDS011;49136;47.416;19.402;2022-07-22T11:41:55;3.13;;;2.83;;
63050;SDS011;49136;47.416;19.402;2022-07-22T11:44:26;5.07;;;2.85;;
63050;SDS011;49136;47.416;19.402;2022-07-22T11:46:54;9.73;;;3.47;;
63050;SDS011;49136;47.416;19.402;2022-07-22T11:49:23;8.52;;;3.13;;
63050;SDS011;49136;47.416;19.402;2022-07-22T11:51:50;7.85;;;2.75;;
63050;SDS011;49136;47.416;19.402;2022-07-22T11:54:16;5.40;;;3.30;;
63050;SDS011;49136;47.416;19.402;2022-07-22T11:56:42;8.23;;;2.90;;
63050;SDS011;49136;47.416;19.402;2022-07-22T11:59:08;6.18;;;3.45;;
63050;SDS011;49136;47.416;19.402;2022-07-22T12:01:37;4.15;;;3.00;;
63050;SDS011;49136;47.416;19.402;2022-07-22T12:04:07;7.55;;;3.10;;
63050;SDS011;49136;47.416;19.402;2022-07-22T12:06:35;4.03;;;3.20;;
63050;SDS011;49136;47.416;19.402;2022-07-22T12:11:33;5.28;;;3.50;;
63050;SDS011;49136;47.416;19.402;2022-07-22T12:14:05;4.82;;;3.42;;
63050;SDS011;49136;47.416;19.402;2022-07-22T12:16:57;10.80;;;3.53;;
63050;SDS011;49136;47.416;19.402;2022-07-22T12:19:26;8.15;;;3.50;;
63050;SDS011;49136;47.416;19.402;2022-07-22T12:22:40;7.97;;;3.42;;
63050;SDS011;49136;47.416;19.402;2022-07-22T12:24:46;6.68;;;3.03;;
63050;SDS011;49136;47.416;19.402;2022-07-22T12:27:24;5.03;;;3.10;;
63050;SDS011;49136;47.416;19.402;2022-07-22T12:29:49;4.97;;;3.22;;
63050;SDS011;49136;47.416;19.402;2022-07-22T12:32:16;7.25;;;3.55;;
63050;SDS011;49136;47.416;19.402;2022-07-22T12:34:44;8.52;;;3.65;;
63050;SDS011;49136;47.416;19.402;2022-07-22T12:37:23;6.20;;;3.70;;
63050;SDS011;49136;47.416;19.402;2022-07-22T12:42:36;8.95;;;4.70;;
63050;SDS011;49136;47.416;19.402;2022-07-22T12:45:03;8.65;;;3.20;;
63050;SDS011;49136;47.416;19.402;2022-07-22T12:52:57;5.32;;;3.63;;
63050;SDS011;49136;47.416;19.402;2022-07-22T12:55:34;8.20;;;4.20;;
63050;SDS011;49136;47.416;19.402;2022-07-22T12:58:02;8.00;;;3.60;;
63050;SDS011;49136;47.416;19.402;2022-07-22T13:00:30;7.30;;;4.13;;
63050;SDS011;49136;47.416;19.402;2022-07-22T13:03:00;8.38;;;3.88;;
63050;SDS011;49136;47.416;19.402;2022-07-22T13:05:26;9.20;;;3.63;;
63050;SDS011;49136;47.416;19.402;2022-07-22T13:07:52;4.20;;;3.45;;
63050;SDS011;49136;47.416;19.402;2022-07-22T13:10:19;10.77;;;3.30;;
63050;SDS011;49136;47.416;19.402;2022-07-22T13:12:48;13.90;;;3.88;;
63050;SDS011;49136;47.416;19.402;2022-07-22T13:15:14;5.43;;;3.25;;
63050;SDS011;49136;47.416;19.402;2022-07-22T13:17:40;10.43;;;4.10;;
63050;SDS011;49136;47.416;19.402;2022-07-22T13:20:06;4.18;;;3.13;;
63050;SDS011;49136;47.416;19.402;2022-07-22T13:22:33;10.57;;;3.72;;
63050;SDS011;49136;47.416;19.402;2022-07-22T13:24:59;9.50;;;4.10;;
63050;SDS011;49136;47.416;19.402;2022-07-22T13:27:24;10.07;;;3.50;;
63050;SDS011;49136;47.416;19.402;2022-07-22T13:29:50;6.88;;;4.05;;
63050;SDS011;49136;47.416;19.402;2022-07-22T13:32:15;13.90;;;3.95;;
63050;SDS011;49136;47.416;19.402;2022-07-22T13:34:41;7.43;;;3.67;;
63050;SDS011;49136;47.416;19.402;2022-07-22T13:37:06;10.98;;;4.50;;
63050;SDS011;49136;47.416;19.402;2022-07-22T13:39:32;5.85;;;3.25;;
63050;SDS011;49136;47.416;19.402;2022-07-22T13:41:57;7.20;;;3.65;;
63050;SDS011;49136;47.416;19.402;2022-07-22T13:44:23;6.57;;;3.60;;
63050;SDS011;49136;47.416;19.402;2022-07-22T13:46:48;10.57;;;3.60;;
63050;SDS011;49136;47.416;19.402;2022-07-22T13:49:14;6.68;;;3.75;;
63050;SDS011;49136;47.416;19.402;2022-07-22T13:51:39;11.95;;;3.72;;
63050;SDS011;49136;47.416;19.402;2022-07-22T13:54:05;6.97;;;3.60;;
63050;SDS011;49136;47.416;19.402;2022-07-22T13:56:33;7.47;;;4.10;;
63050;SDS011;49136;47.416;19.402;2022-07-22T13:58:59;6.63;;;4.28;;
63050;SDS011;49136;47.416;19.402;2022-07-22T14:01:25;6.20;;;4.03;;
63050;SDS011;49136;47.416;19.402;2022-07-22T14:03:52;7.00;;;4.00;;
63050;SDS011;49136;47.416;19.402;2022-07-22T14:06:17;13.18;;;4.43;;
63050;SDS011;49136;47.416;19.402;2022-07-22T14:08:43;6.57;;;3.50;;
63050;SDS011;49136;47.416;19.402;2022-07-22T14:11:08;5.70;;;3.35;;
63050;SDS011;49136;47.416;19.402;2022-07-22T14:13:34;11.05;;;4.70;;
63050;SDS011;49136;47.416;19.402;2022-07-22T14:16:00;7.07;;;4.45;;
63050;SDS011;49136;47.416;19.402;2022-07-22T14:18:45;7.72;;;4.00;;
63050;SDS011;49136;47.416;19.402;2022-07-22T14:21:11;11.25;;;4.18;;
63050;SDS011;49136;47.416;19.402;2022-07-22T14:23:36;10.13;;;4.15;;
63050;SDS011;49136;47.416;19.402;2022-07-22T14:26:01;6.40;;;3.75;;
63050;SDS011;49136;47.416;19.402;2022-07-22T14:28:27;5.45;;;3.70;;
63050;SDS011;49136;47.416;19.402;2022-07-22T14:30:52;7.38;;;4.00;;
63050;SDS011;49136;47.416;19.402;2022-07-22T14:33:18;6.50;;;4.70;;
63050;SDS011;49136;47.416;19.402;2022-07-22T14:35:43;8.20;;;4.40;;
63050;SDS011;49136;47.416;19.402;2022-07-22T14:38:08;7.57;;;3.95;;
63050;SDS011;49136;47.416;19.402;2022-07-22T14:40:34;7.38;;;4.53;;
63050;SDS011;49136;47.416;19.402;2022-07-22T14:42:59;15.85;;;4.57;;
63050;SDS011;49136;47.416;19.402;2022-07-22T14:45:25;10.90;;;4.60;;
63050;SDS011;49136;47.416;19.402;2022-07-22T14:47:50;8.35;;;4.50;;
63050;SDS011;49136;47.416;19.402;2022-07-22T14:50:16;7.50;;;4.50;;
63050;SDS011;49136;47.416;19.402;2022-07-22T14:52:41;12.75;;;4.10;;
63050;SDS011;49136;47.416;19.402;2022-07-22T14:55:07;18.45;;;4.30;;
63050;SDS011;49136;47.416;19.402;2022-07-22T14:57:32;12.40;;;4.18;;
63050;SDS011;49136;47.416;19.402;2022-07-22T14:59:58;5.97;;;4.65;;
63050;SDS011;49136;47.416;19.402;2022-07-22T15:02:23;12.45;;;4.45;;
63050;SDS011;49136;47.416;19.402;2022-07-22T15:04:49;4.82;;;3.88;;
63050;SDS011;49136;47.416;19.402;2022-07-22T15:07:15;14.00;;;4.32;;